Time;durP1;ratioP1;P1;durP2;ratioP2;P2;SDS_P1;SDS_P2;PMS_P1;PMS_P2;Temp;Humidity;BMP_temperature;BMP_pressure;BME280_temperature;BME280_humidity;BME280_pressure;Samples;Min_cycle;Max_cycle;Signal;HPM_P1;HPM_P2
2022/08/30 00:02:53;;;;;;;10.43;9.32;;;;;;;20.35;100.00;94615.34;5032921;28;20586;-65
2022/08/30 00:05:18;;;;;;;11.10;9.95;;;;;;;20.54;100.00;94625.75;5053778;28;20223;-65
2022/08/30 00:07:45;;;;;;;10.32;8.93;;;;;;;20.58;100.00;94623.63;5055900;28;20186;-62
2022/08/30 00:10:11;;;;;;;12.07;10.35;;;;;;;20.33;100.00;94623.28;5052311;28;20220;-64
2022/08/30 00:12:37;;;;;;;13.48;10.25;;;;;;;20.40;100.00;94618.16;5052648;28;20228;-64
2022/08/30 00:15:04;;;;;;;11.55;10.30;;;;;;;20.43;100.00;94617.75;5055518;28;20213;-64
2022/08/30 00:17:29;;;;;;;14.50;10.48;;;;;;;20.28;100.00;94614.50;5052039;28;20194;-65
2022/08/30 00:19:56;;;;;;;12.43;10.95;;;;;;;20.34;100.00;94614.53;5053527;28;20217;-64
2022/08/30 00:22:22;;;;;;;15.50;10.68;;;;;;;20.33;100.00;94620.69;5054065;28;20193;-65
2022/08/30 00:24:48;;;;;;;12.90;10.38;;;;;;;20.54;100.00;94618.00;5052808;28;20825;-63
2022/08/30 00:27:14;;;;;;;15.02;9.93;;;;;;;20.55;100.00;94613.66;5054157;28;20272;-64
2022/08/30 00:29:40;;;;;;;13.45;9.73;;;;;;;20.55;100.00;94618.81;5053727;28;20216;-63
2022/08/30 00:32:05;;;;;;;9.38;8.48;;;;;;;20.48;100.00;94618.78;5055938;28;20189;-63
2022/08/30 00:34:31;;;;;;;11.80;9.32;;;;;;;20.45;100.00;94618.38;5052675;28;20229;-65
2022/08/30 00:36:58;;;;;;;11.05;7.90;;;;;;;20.32;100.00;94618.31;5052848;28;20186;-64
2022/08/30 00:39:23;;;;;;;9.38;8.40;;;;;;;20.16;100.00;94628.91;5054083;28;20222;-64
2022/08/30 00:41:49;;;;;;;7.90;6.97;;;;;;;20.40;100.00;94631.84;5053466;28;20197;-65
2022/08/30 00:44:15;;;;;;;8.27;7.25;;;;;;;20.38;99.38;94633.81;5056201;28;20220;-65
2022/08/30 00:46:41;;;;;;;8.60;7.80;;;;;;;20.40;99.72;94625.91;5054782;28;20197;-64
2022/08/30 00:49:09;;;;;;;8.90;7.00;;;;;;;20.15;100.00;94627.28;5053519;28;20266;-62
2022/08/30 00:51:35;;;;;;;10.82;7.70;;;;;;;20.25;100.00;94632.94;5054190;28;20198;-64
2022/08/30 00:54:02;;;;;;;11.18;7.93;;;;;;;20.40;100.00;94637.00;5051027;28;20214;-64
2022/08/30 00:56:29;;;;;;;12.07;8.02;;;;;;;20.18;100.00;94638.03;5053961;28;20269;-64
2022/08/30 00:58:58;;;;;;;12.65;8.52;;;;;;;20.21;100.00;94626.56;5053304;28;20221;-64
2022/08/30 01:01:25;;;;;;;16.02;9.32;;;;;;;20.28;100.00;94632.59;5053591;28;20194;-64
2022/08/30 01:03:51;;;;;;;11.13;8.48;;;;;;;20.25;100.00;94630.38;5051592;28;20206;-65
2022/08/30 01:06:17;;;;;;;10.98;9.43;;;;;;;20.20;100.00;94622.41;5053201;28;20186;-64
2022/08/30 01:08:44;;;;;;;15.98;9.57;;;;;;;20.03;100.00;94624.44;5051504;28;20213;-65
2022/08/30 01:11:12;;;;;;;13.82;10.20;;;;;;;20.16;100.00;94619.34;5052698;28;20280;-64
2022/08/30 01:13:39;;;;;;;13.32;10.25;;;;;;;20.31;100.00;94622.66;5051616;28;20722;-65
2022/08/30 01:16:05;;;;;;;16.63;11.35;;;;;;;20.27;100.00;94623.22;5052075;28;20201;-64
2022/08/30 01:18:31;;;;;;;14.05;11.90;;;;;;;20.21;100.00;94619.63;5051574;28;20205;-64
2022/08/30 01:21:09;;;;;;;14.15;12.38;;;;;;;20.16;100.00;94621.94;5052179;28;20576;-64
2022/08/30 01:23:38;;;;;;;16.05;12.20;;;;;;;19.98;100.00;94625.00;5051618;28;20275;-64
2022/08/30 01:26:04;;;;;;;16.02;12.23;;;;;;;20.05;100.00;94623.28;5051124;28;20632;-62
2022/08/30 01:28:31;;;;;;;17.52;12.07;;;;;;;19.85;100.00;94622.34;5052683;28;20212;-64
2022/08/30 01:30:57;;;;;;;15.10;12.80;;;;;;;20.03;100.00;94619.28;5077994;22;20246;-64
2022/08/30 01:33:23;;;;;;;13.65;12.27;;;;;;;19.93;100.00;94617.03;5070771;28;20717;-63
2022/08/30 01:35:55;;;;;;;18.55;13.40;;;;;;;19.92;100.00;94612.03;5052738;28;20193;-62
2022/08/30 01:38:25;;;;;;;14.13;12.63;;;;;;;20.12;100.00;94617.34;5051428;28;20274;-64
2022/08/30 01:41:14;;;;;;;16.58;12.43;;;;;;;20.09;100.00;94610.78;5051196;28;20248;-62
2022/08/30 01:43:40;;;;;;;17.10;12.68;;;;;;;20.05;100.00;94625.84;5052172;28;20213;-69
2022/08/30 01:46:06;;;;;;;18.80;13.02;;;;;;;20.12;100.00;94622.53;5051041;28;20200;-63
2022/08/30 01:48:33;;;;;;;24.35;13.70;;;;;;;20.12;100.00;94623.28;5052206;28;20209;-64
2022/08/30 01:50:58;;;;;;;22.17;13.40;;;;;;;20.10;100.00;94615.75;5052158;28;20185;-64
2022/08/30 01:53:24;;;;;;;16.85;12.90;;;;;;;20.07;100.00;94618.72;5052793;28;20566;-64
2022/08/30 01:55:50;;;;;;;18.45;13.80;;;;;;;19.78;100.00;94621.47;5052081;28;20182;-63
2022/08/30 01:58:15;;;;;;;14.60;13.10;;;;;;;19.80;100.00;94623.84;5051785;28;20609;-63
2022/08/30 02:00:41;;;;;;;17.70;12.15;;;;;;;19.77;100.00;94614.72;5052191;28;20217;-63
2022/08/30 02:03:07;;;;;;;15.90;13.75;;;;;;;19.91;100.00;94619.00;5051390;28;20227;-64
2022/08/30 02:05:32;;;;;;;16.77;13.10;;;;;;;20.18;100.00;94614.78;5050548;28;20212;-63
2022/08/30 02:07:58;;;;;;;14.10;12.63;;;;;;;20.22;100.00;94615.28;5050867;28;20189;-64
2022/08/30 02:10:24;;;;;;;19.00;14.55;;;;;;;20.19;100.00;94607.84;5052120;28;20232;-64
2022/08/30 02:12:49;;;;;;;15.45;13.75;;;;;;;20.06;100.00;94606.78;5052608;28;20217;-63
2022/08/30 02:15:16;;;;;;;16.42;13.45;;;;;;;20.03;100.00;94616.69;5051737;28;20683;-64
2022/08/30 02:17:41;;;;;;;16.25;14.00;;;;;;;19.93;100.00;94614.44;5053797;28;20679;-64
2022/08/30 02:20:08;;;;;;;18.63;14.90;;;;;;;19.76;100.00;94609.72;5050156;28;20221;-64
2022/08/30 02:22:34;;;;;;;15.25;12.95;;;;;;;19.74;100.00;94609.94;5051955;28;20585;-64
2022/08/30 02:24:59;;;;;;;18.63;12.45;;;;;;;19.78;100.00;94600.03;5051935;28;20217;-64
2022/08/30 02:27:26;;;;;;;13.85;12.32;;;;;;;19.60;100.00;94610.81;5050459;28;20196;-64
2022/08/30 02:29:51;;;;;;;15.98;12.55;;;;;;;19.68;100.00;94610.66;5051878;28;20267;-63
2022/08/30 02:32:17;;;;;;;15.82;12.77;;;;;;;19.55;100.00;94604.59;5051572;28;20174;-63
2022/08/30 02:34:43;;;;;;;12.00;10.85;;;;;;;19.79;100.00;94612.75;5051652;28;20221;-61
2022/08/30 02:37:09;;;;;;;13.20;11.82;;;;;;;19.88;100.00;94608.22;5051649;28;20182;-64
2022/08/30 02:39:34;;;;;;;12.40;10.68;;;;;;;19.95;100.00;94615.06;5049899;28;20229;-65
2022/08/30 02:42:00;;;;;;;12.90;11.40;;;;;;;19.98;100.00;94617.25;5050118;28;20189;-65
2022/08/30 02:44:25;;;;;;;12.70;10.27;;;;;;;19.81;100.00;94605.63;5050388;28;20251;-64
2022/08/30 02:46:51;;;;;;;11.98;9.60;;;;;;;19.72;100.00;94600.78;5051438;28;20196;-62
2022/08/30 02:49:16;;;;;;;10.38;9.27;;;;;;;19.76;100.00;94602.00;5051587;28;20201;-64
2022/08/30 02:51:41;;;;;;;15.60;9.68;;;;;;;19.54;100.00;94593.50;5051211;28;20189;-63
2022/08/30 02:54:07;;;;;;;11.20;9.90;;;;;;;19.43;100.00;94601.75;5049815;28;20209;-64
2022/08/30 02:56:32;;;;;;;10.90;9.80;;;;;;;19.51;100.00;94606.78;5051208;28;20189;-61
2022/08/30 02:58:58;;;;;;;13.32;10.65;;;;;;;19.51;100.00;94591.28;5051068;28;20221;-63
2022/08/30 03:01:24;;;;;;;10.93;8.73;;;;;;;19.74;100.00;94603.97;5051028;28;20220;-63
2022/08/30 03:03:49;;;;;;;11.45;9.60;;;;;;;19.88;100.00;94614.19;5050930;28;20651;-64
2022/08/30 03:06:15;;;;;;;14.30;9.32;;;;;;;19.79;100.00;94602.44;5051466;28;20547;-64
2022/08/30 03:08:41;;;;;;;14.93;9.35;;;;;;;19.62;100.00;94606.25;5049648;28;20220;-64
2022/08/30 03:11:08;;;;;;;9.85;8.85;;;;;;;19.66;100.00;94612.63;5049783;28;20228;-65
2022/08/30 03:13:33;;;;;;;10.95;9.02;;;;;;;19.46;100.00;94613.44;5049408;28;20286;-63
2022/08/30 03:15:59;;;;;;;9.73;8.23;;;;;;;19.36;100.00;94616.34;5049661;28;20604;-63
2022/08/30 03:18:25;;;;;;;12.35;8.93;;;;;;;19.25;100.00;94611.63;5050611;28;20197;-64
2022/08/30 03:20:51;;;;;;;10.73;9.05;;;;;;;19.32;100.00;94625.38;5049516;28;20213;-63
2022/08/30 03:23:17;;;;;;;9.52;8.45;;;;;;;19.22;100.00;94620.53;5049500;28;20181;-63
2022/08/30 03:25:43;;;;;;;12.85;8.93;;;;;;;19.19;100.00;94615.75;5050756;28;20201;-63
2022/08/30 03:28:08;;;;;;;11.45;8.98;;;;;;;19.24;100.00;94630.66;5050677;28;20610;-64
2022/08/30 03:30:34;;;;;;;13.50;9.23;;;;;;;19.44;100.00;94638.63;5049655;28;20259;-64
2022/08/30 03:33:00;;;;;;;12.55;9.57;;;;;;;19.49;100.00;94638.88;5049696;28;20216;-63
2022/08/30 03:35:26;;;;;;;12.13;8.63;;;;;;;19.51;100.00;94648.03;5049845;28;20277;-63
2022/08/30 03:37:52;;;;;;;11.25;8.68;;;;;;;19.44;100.00;94633.47;5050988;28;20190;-61
2022/08/30 03:40:20;;;;;;;12.20;9.43;;;;;;;19.36;100.00;94621.50;5049390;28;20308;-64
2022/08/30 03:42:47;;;;;;;11.50;9.07;;;;;;;19.46;100.00;94629.72;5050491;28;20330;-63
2022/08/30 03:45:15;;;;;;;13.95;10.18;;;;;;;19.46;100.00;94634.06;5050744;28;20214;-63
2022/08/30 03:47:40;;;;;;;12.85;8.95;;;;;;;19.47;100.00;94627.94;5050610;28;20189;-64
2022/08/30 03:50:07;;;;;;;12.20;8.77;;;;;;;19.21;100.00;94626.66;5050413;28;20213;-64
2022/08/30 03:52:32;;;;;;;11.38;9.18;;;;;;;19.12;100.00;94614.09;5050675;28;20196;-64
2022/08/30 03:54:59;;;;;;;11.23;8.95;;;;;;;19.32;100.00;94620.22;5050688;28;20209;-62
2022/08/30 03:57:25;;;;;;;10.77;9.27;;;;;;;19.24;100.00;94623.75;5049409;28;20682;-63
2022/08/30 03:59:51;;;;;;;12.40;9.10;;;;;;;19.24;100.00;94626.31;5050283;28;20221;-64
2022/08/30 04:02:16;;;;;;;11.98;9.63;;;;;;;19.30;100.00;94622.19;5049303;28;20178;-64
2022/08/30 04:04:42;;;;;;;14.25;10.23;;;;;;;19.29;100.00;94618.00;5050683;28;20271;-66
2022/08/30 04:07:08;;;;;;;15.30;10.82;;;;;;;19.39;100.00;94621.13;5050771;28;20716;-65
2022/08/30 04:09:33;;;;;;;14.48;10.88;;;;;;;19.24;100.00;94604.88;5051044;28;20210;-63
2022/08/30 04:11:59;;;;;;;14.55;11.07;;;;;;;19.27;100.00;94625.13;5050209;28;20198;-62
2022/08/30 04:14:25;;;;;;;12.93;11.63;;;;;;;19.12;100.00;94624.38;5064091;22;20231;-64
2022/08/30 04:16:50;;;;;;;16.38;11.73;;;;;;;19.15;100.00;94627.41;5070128;28;20227;-64
2022/08/30 04:19:16;;;;;;;15.57;12.20;;;;;;;19.12;100.00;94632.13;5060657;28;20701;-63
2022/08/30 04:21:43;;;;;;;13.38;11.95;;;;;;;19.10;100.00;94639.25;5049740;28;20617;-63
2022/08/30 04:24:10;;;;;;;14.40;12.45;;;;;;;19.21;100.00;94646.47;5053386;28;20214;-63
2022/08/30 04:26:36;;;;;;;13.20;11.77;;;;;;;19.33;100.00;94644.25;5080959;22;20237;-64
2022/08/30 04:29:01;;;;;;;15.43;12.40;;;;;;;19.46;100.00;94640.03;5064812;28;20224;-63
2022/08/30 04:31:27;;;;;;;15.05;13.30;;;;;;;19.51;100.00;94637.72;5053819;28;20279;-64
2022/08/30 04:33:52;;;;;;;17.40;13.95;;;;;;;19.63;100.00;94638.81;5056487;28;20670;-65
2022/08/30 04:36:18;;;;;;;13.75;12.30;;;;;;;19.85;100.00;94639.59;5053620;28;20323;-65
2022/08/30 04:38:44;;;;;;;14.23;11.15;;;;;;;20.17;100.00;94644.19;5053555;28;20284;-63
2022/08/30 04:41:14;;;;;;;14.52;12.07;;;;;;;20.38;100.00;94658.88;5054012;28;20201;-64
2022/08/30 04:43:39;;;;;;;14.00;11.35;;;;;;;20.62;100.00;94642.91;5052887;28;20598;-64
2022/08/30 04:46:07;;;;;;;14.90;11.43;;;;;;;20.82;100.00;94651.56;5055275;28;20193;-67
2022/08/30 04:48:33;;;;;;;14.32;11.75;;;;;;;20.98;100.00;94666.75;5053145;28;20213;-63
2022/08/30 04:50:59;;;;;;;12.65;10.45;;;;;;;21.03;100.00;94687.66;5054393;28;20591;-62
2022/08/30 04:53:24;;;;;;;12.95;10.63;;;;;;;21.21;100.00;94713.78;5053155;28;20181;-64
2022/08/30 04:55:51;;;;;;;15.40;10.95;;;;;;;21.28;100.00;94729.34;5052802;28;20193;-63
2022/08/30 04:58:16;;;;;;;23.27;11.57;;;;;;;21.01;100.00;94702.53;5051800;28;20204;-64
2022/08/30 05:00:43;;;;;;;11.25;10.00;;;;;;;21.15;100.00;94688.69;5051822;28;20213;-62
2022/08/30 05:03:08;;;;;;;15.90;10.52;;;;;;;21.12;100.00;94683.94;5052744;28;20612;-62
2022/08/30 05:05:40;;;;;;;10.20;8.73;;;;;;;21.35;100.00;94718.00;5034880;28;20232;-62
2022/08/30 05:08:11;;;;;;;17.83;11.68;;;;;;;21.28;100.00;94711.22;5052870;28;20261;-60
2022/08/30 05:10:50;;;;;;;19.15;11.73;;;;;;;21.38;100.00;94694.34;5053037;28;20651;-61
2022/08/30 05:13:17;;;;;;;14.95;9.60;;;;;;;21.43;97.59;94769.59;5051813;28;20216;-61
2022/08/30 05:15:44;;;;;;;14.60;9.75;;;;;;;21.27;100.00;94718.19;5052894;28;20268;-62
2022/08/30 05:18:10;;;;;;;14.02;10.10;;;;;;;21.16;98.96;94742.03;5052788;28;20623;-62
2022/08/30 05:20:37;;;;;;;11.95;9.95;;;;;;;21.13;100.00;94708.78;5052666;28;20229;-60
2022/08/30 05:23:03;;;;;;;17.17;12.23;;;;;;;21.05;100.00;94696.00;5052549;28;20178;-63
2022/08/30 05:25:32;;;;;;;15.27;12.77;;;;;;;21.12;100.00;94696.84;5051027;28;20224;-62
2022/08/30 05:27:58;;;;;;;23.50;14.38;;;;;;;21.09;100.00;94692.06;5051810;28;20192;-61
2022/08/30 05:30:25;;;;;;;15.38;12.63;;;;;;;21.08;100.00;94697.44;5053274;28;20217;-61
2022/08/30 05:32:57;;;;;;;20.73;12.77;;;;;;;21.18;100.00;94703.03;5051400;28;20188;-61
2022/08/30 05:35:22;;;;;;;16.63;13.30;;;;;;;21.33;100.00;94717.41;5053311;28;20316;-60
2022/08/30 05:37:49;;;;;;;17.55;12.98;;;;;;;21.28;100.00;94706.06;5052872;28;20802;-62
2022/08/30 05:40:17;;;;;;;16.63;13.27;;;;;;;21.44;100.00;94703.94;5052070;28;20233;-62
2022/08/30 05:42:45;;;;;;;13.25;11.65;;;;;;;21.49;100.00;94695.59;5051163;28;20185;-61
2022/08/30 05:45:11;;;;;;;12.98;11.55;;;;;;;21.65;100.00;94711.53;5052442;28;20217;-60
2022/08/30 05:47:38;;;;;;;21.45;13.35;;;;;;;21.60;100.00;94724.28;5052239;28;20209;-60
2022/08/30 05:50:05;;;;;;;16.35;12.70;;;;;;;21.47;99.67;94724.22;5052316;28;20217;-60
2022/08/30 05:52:37;;;;;;;17.75;13.63;;;;;;;21.41;100.00;94719.81;5052096;28;20265;-60
2022/08/30 05:55:03;;;;;;;21.67;16.13;;;;;;;20.92;100.00;94672.69;5052129;28;20680;-61
2022/08/30 05:57:32;;;;;;;29.60;15.85;;;;;;;20.67;100.00;94661.22;5051972;28;20174;-59
2022/08/30 06:00:00;;;;;;;18.73;13.68;;;;;;;20.91;100.00;94656.38;5052007;28;20226;-62
2022/08/30 06:02:25;;;;;;;21.05;14.27;;;;;;;21.18;100.00;94677.97;5051995;28;20636;-65
2022/08/30 06:04:51;;;;;;;19.13;13.18;;;;;;;21.22;100.00;94679.19;5052057;28;20613;-63
2022/08/30 06:07:16;;;;;;;19.02;13.93;;;;;;;21.41;100.00;94683.59;5052022;28;20694;-63
2022/08/30 06:09:42;;;;;;;18.15;12.43;;;;;;;21.60;100.00;94687.25;5051962;28;20262;-63
2022/08/30 06:12:07;;;;;;;24.48;13.57;;;;;;;21.47;100.00;94687.22;5050624;28;20188;-63
2022/08/30 06:14:33;;;;;;;20.33;13.27;;;;;;;21.40;100.00;94692.38;5051893;28;20208;-63
2022/08/30 06:16:58;;;;;;;19.98;14.45;;;;;;;21.40;100.00;94691.56;5052907;28;20335;-64
2022/08/30 06:19:24;;;;;;;18.60;13.27;;;;;;;21.53;100.00;94683.84;5051712;28;20213;-64
2022/08/30 06:21:49;;;;;;;19.33;14.50;;;;;;;21.23;100.00;94685.16;5051731;28;20185;-61
2022/08/30 06:24:15;;;;;;;27.40;16.70;;;;;;;21.15;100.00;94686.09;5051528;28;20244;-61
2022/08/30 06:26:45;;;;;;;23.58;14.68;;;;;;;21.19;100.00;94689.91;5052073;28;20558;-63
2022/08/30 06:29:14;;;;;;;17.20;14.50;;;;;;;21.44;100.00;94703.13;5051954;28;20350;-63
2022/08/30 06:31:39;;;;;;;21.02;13.68;;;;;;;21.64;100.00;94707.38;5050565;28;20682;-63
2022/08/30 06:34:05;;;;;;;20.15;14.40;;;;;;;21.80;100.00;94720.91;5051982;28;20292;-64
2022/08/30 06:36:31;;;;;;;26.30;17.20;;;;;;;21.81;100.00;94697.47;5052048;28;20185;-64
2022/08/30 06:38:58;;;;;;;21.23;15.90;;;;;;;21.46;100.00;94709.72;5051320;28;20221;-62
2022/08/30 06:41:26;;;;;;;17.27;14.18;;;;;;;21.50;100.00;94708.31;5050014;28;20186;-63
2022/08/30 06:43:53;;;;;;;23.15;14.95;;;;;;;21.61;100.00;94725.09;5051594;28;20255;-63
2022/08/30 06:46:25;;;;;;;20.67;14.65;;;;;;;21.57;100.00;94721.28;5051343;28;20540;-62
2022/08/30 06:48:51;;;;;;;17.17;15.13;;;;;;;21.72;100.00;94745.19;5051295;28;20236;-63
2022/08/30 06:51:31;;;;;;;17.48;14.23;;;;;;;21.69;100.00;94727.50;5050293;28;20193;-65
2022/08/30 06:53:57;;;;;;;18.50;14.73;;;;;;;21.81;100.00;94746.66;5050161;28;20306;-62
2022/08/30 06:56:24;;;;;;;19.98;13.18;;;;;;;21.92;100.00;94732.34;5051500;28;20643;-65
2022/08/30 06:58:50;;;;;;;16.55;13.18;;;;;;;22.11;100.00;94749.69;5050987;28;20718;-64
2022/08/30 07:01:21;;;;;;;15.20;12.70;;;;;;;22.20;100.00;94753.69;5051398;28;20181;-64
2022/08/30 07:03:48;;;;;;;16.15;13.65;;;;;;;22.22;100.00;94760.25;5033394;28;20698;-62
2022/08/30 07:06:14;;;;;;;21.08;13.70;;;;;;;22.40;100.00;94772.63;5051179;28;20181;-64
2022/08/30 07:08:40;;;;;;;16.77;12.60;;;;;;;22.51;99.38;94792.75;5051009;28;20212;-64
2022/08/30 07:11:06;;;;;;;19.98;13.57;;;;;;;22.57;98.79;94789.38;5051461;28;20194;-62
2022/08/30 07:13:33;;;;;;;22.48;14.32;;;;;;;22.57;97.43;94802.31;5050979;28;20205;-62
2022/08/30 07:15:58;;;;;;;14.60;13.07;;;;;;;22.50;98.44;94780.81;5051999;28;20216;-62
2022/08/30 07:21:11;;;;;;;18.45;15.90;;;;;;;22.67;99.08;94766.47;5051369;28;20244;-63
2022/08/30 07:23:38;;;;;;;17.60;15.80;;;;;;;22.58;99.06;94765.09;5050794;28;20205;-63
2022/08/30 07:26:07;;;;;;;20.15;16.45;;;;;;;21.98;100.00;94723.78;5050952;28;20186;-62
2022/08/30 07:28:33;;;;;;;21.65;15.57;;;;;;;21.46;100.00;94706.31;5050813;28;20201;-62
2022/08/30 07:30:58;;;;;;;16.98;15.23;;;;;;;21.36;100.00;94706.69;5051056;28;20193;-66
2022/08/30 07:33:24;;;;;;;15.80;13.68;;;;;;;21.65;100.00;94721.88;5050856;28;20235;-65
2022/08/30 07:35:50;;;;;;;21.58;17.23;;;;;;;21.66;100.00;94727.88;5050997;28;20189;-65
2022/08/30 07:38:15;;;;;;;19.30;14.98;;;;;;;21.95;100.00;94737.13;5049277;28;20197;-64
2022/08/30 07:40:41;;;;;;;25.42;16.30;;;;;;;22.11;100.00;94741.91;5049402;28;20225;-64
2022/08/30 07:43:06;;;;;;;20.58;16.08;;;;;;;22.10;100.00;94776.59;5050942;28;20221;-63
2022/08/30 07:45:32;;;;;;;19.02;14.88;;;;;;;21.71;100.00;94728.88;5050884;28;20198;-64
2022/08/30 07:47:58;;;;;;;21.48;17.35;;;;;;;21.67;100.00;94735.44;5049504;28;20193;-64
2022/08/30 07:50:23;;;;;;;20.23;14.32;;;;;;;21.81;100.00;94725.94;5050501;28;20231;-62
2022/08/30 07:52:49;;;;;;;18.40;15.20;;;;;;;22.02;100.00;94753.47;5050614;28;20250;-63
2022/08/30 07:55:15;;;;;;;16.80;14.52;;;;;;;22.16;100.00;94765.44;5050461;28;20205;-63
2022/08/30 07:57:40;;;;;;;17.85;13.35;;;;;;;22.17;100.00;94767.03;5050325;28;20201;-63
2022/08/30 08:00:07;;;;;;;15.80;14.13;;;;;;;22.17;100.00;94756.66;5050418;28;20218;-63
2022/08/30 08:02:32;;;;;;;18.90;15.65;;;;;;;21.90;100.00;94744.69;5049431;28;20277;-63
2022/08/30 08:04:58;;;;;;;18.35;15.95;;;;;;;21.89;100.00;94743.09;5052842;28;20296;-63
2022/08/30 08:07:24;;;;;;;18.38;15.10;;;;;;;22.10;100.00;94748.09;5052505;28;20243;-62
2022/08/30 08:09:49;;;;;;;18.02;14.25;;;;;;;22.26;100.00;94761.44;5053993;28;20259;-63
2022/08/30 08:12:15;;;;;;;21.55;15.43;;;;;;;22.37;100.00;94770.44;5053867;28;20228;-62
2022/08/30 08:14:40;;;;;;;20.38;15.50;;;;;;;22.46;100.00;94771.84;5053499;28;20291;-63
2022/08/30 08:17:06;;;;;;;23.40;16.38;;;;;;;22.26;100.00;94753.69;5053807;28;20269;-64
2022/08/30 08:19:32;;;;;;;21.60;15.50;;;;;;;21.94;100.00;94730.38;5053636;28;20223;-63
2022/08/30 08:21:59;;;;;;;23.27;18.70;;;;;;;22.00;100.00;94730.34;5053668;28;20181;-65
2022/08/30 08:24:28;;;;;;;21.50;18.85;;;;;;;21.75;100.00;94727.47;5053365;28;20209;-65
2022/08/30 08:26:54;;;;;;;23.65;18.85;;;;;;;21.28;100.00;94735.31;5053387;28;20259;-65
2022/08/30 08:29:21;;;;;;;24.05;18.38;;;;;;;21.09;100.00;94733.41;5052073;28;20258;-65
2022/08/30 08:31:47;;;;;;;28.42;19.30;;;;;;;20.71;100.00;94734.78;5052183;28;20757;-61
2022/08/30 08:34:12;;;;;;;22.65;18.67;;;;;;;20.74;100.00;94737.00;5052720;28;20206;-61
2022/08/30 08:36:39;;;;;;;23.85;17.70;;;;;;;20.93;100.00;94736.28;5053307;28;20200;-65
2022/08/30 08:39:06;;;;;;;25.77;21.10;;;;;;;20.98;100.00;94727.97;5051982;28;20206;-63
2022/08/30 08:42:09;;;;;;;22.15;19.60;;;;;;;21.07;100.00;94732.81;5053831;28;20201;-65
2022/08/30 08:45:01;;;;;;;20.63;18.20;;;;;;;21.09;100.00;94738.59;5051852;28;20239;-60
2022/08/30 08:47:53;;;;;;;23.90;19.45;;;;;;;21.14;100.00;94738.84;5053472;28;20228;-62
2022/08/30 08:50:19;;;;;;;25.10;18.65;;;;;;;21.31;100.00;94737.50;5053328;28;20217;-64
2022/08/30 08:55:49;;;;;;;24.40;18.23;;;;;;;21.44;100.00;94729.00;5053217;28;20224;-61
2022/08/30 09:00:44;;;;;;;19.95;17.17;;;;;;;21.38;100.00;94738.34;5079391;22;20313;-62
2022/08/30 09:03:20;;;;;;;23.52;17.70;;;;;;;21.51;100.00;94743.53;5072585;28;20781;-60
2022/08/30 09:05:46;;;;;;;19.50;16.63;;;;;;;21.84;100.00;94761.78;5053183;28;20189;-63
2022/08/30 09:08:14;;;;;;;18.17;14.15;;;;;;;21.90;100.00;94749.88;5052614;28;20192;-61
2022/08/30 09:10:53;;;;;;;17.98;15.02;;;;;;;22.16;100.00;94748.09;5052632;28;20300;-63
2022/08/30 09:13:19;;;;;;;15.75;13.85;;;;;;;22.52;100.00;94756.25;5052692;28;20243;-62
2022/08/30 09:15:45;;;;;;;20.70;17.27;;;;;;;23.08;100.00;94771.38;5050204;28;20200;-63
2022/08/30 09:18:11;;;;;;;21.15;18.10;;;;;;;23.29;100.00;94758.94;5052906;28;20193;-63
2022/08/30 09:20:42;;;;;;;22.90;17.80;;;;;;;23.63;100.00;94783.03;5052505;28;20648;-63
2022/08/30 09:23:29;;;;;;;18.90;14.70;;;;;;;23.96;100.00;94796.63;5052619;28;20220;-63
2022/08/30 09:26:05;;;;;;;15.57;13.80;;;;;;;24.16;98.27;94824.13;5052446;28;20573;-65
2022/08/30 09:28:33;;;;;;;21.50;14.02;;;;;;;24.50;96.66;94845.53;5052487;28;20209;-61
2022/08/30 09:31:20;;;;;;;18.23;14.75;;;;;;;24.86;94.98;94851.69;5051003;28;20197;-63
2022/08/30 09:33:54;;;;;;;19.23;12.52;;;;;;;25.33;92.38;94860.66;5052658;28;20217;-63
2022/08/30 09:36:30;;;;;;;16.23;11.82;;;;;;;25.56;88.29;94907.75;5052384;28;20181;-63
2022/08/30 09:39:04;;;;;;;16.15;11.55;;;;;;;25.57;87.46;94888.50;5050956;28;20217;-63
2022/08/30 09:41:41;;;;;;;15.02;11.82;;;;;;;26.01;84.29;94926.53;5052217;28;20178;-62
2022/08/30 09:44:21;;;;;;;12.77;9.27;;;;;;;26.19;76.76;94988.28;5052436;28;20205;-63
2022/08/30 09:46:51;;;;;;;12.77;10.27;;;;;;;26.14;75.76;94983.72;5052286;28;20726;-64
2022/08/30 09:49:36;;;;;;;11.60;9.65;;;;;;;26.08;79.43;94914.22;5052071;28;20224;-62
2022/08/30 09:52:10;;;;;;;15.45;9.90;;;;;;;26.33;78.28;94938.41;5051987;28;20174;-62
2022/08/30 09:55:08;;;;;;;12.50;10.20;;;;;;;26.59;76.32;94950.28;5052050;28;20213;-62
2022/08/30 09:58:08;;;;;;;11.00;8.70;;;;;;;26.84;71.12;94999.78;5026372;28;20732;-62
2022/08/30 10:00:43;;;;;;;13.10;9.85;;;;;;;26.66;76.32;94905.88;5052058;28;20271;-65
2022/08/30 10:03:42;;;;;;;15.65;9.75;;;;;;;26.61;77.64;94878.63;5050536;28;20550;-62
2022/08/30 10:06:10;;;;;;;13.05;11.68;;;;;;;27.06;74.76;94931.19;5051578;28;20205;-64
2022/08/30 10:09:04;;;;;;;19.90;12.63;;;;;;;27.47;73.50;94946.03;5050537;28;20275;-62
2022/08/30 10:11:50;;;;;;;20.23;13.30;;;;;;;27.62;73.00;94933.31;5051844;28;20182;-63
2022/08/30 10:14:30;;;;;;;17.27;12.90;;;;;;;27.79;72.57;94942.06;5051961;28;20283;-63
2022/08/30 10:17:21;;;;;;;17.17;12.63;;;;;;;27.68;73.69;94916.72;5051844;28;20189;-63
2022/08/30 10:20:05;;;;;;;20.60;13.38;;;;;;;27.49;71.93;94940.59;5050412;28;20225;-65
2022/08/30 10:22:43;;;;;;;14.85;10.85;;;;;;;27.34;71.61;94933.97;5051616;28;20707;-64
2022/08/30 10:25:14;;;;;;;16.92;12.65;;;;;;;27.39;71.15;94948.97;5050320;28;20237;-64
2022/08/30 10:27:59;;;;;;;14.32;11.60;;;;;;;27.44;72.52;94922.97;5051441;28;20247;-65
2022/08/30 10:30:27;;;;;;;14.15;10.90;;;;;;;27.47;71.23;94935.59;5050072;28;20216;-64
2022/08/30 10:33:00;;;;;;;16.52;11.88;;;;;;;28.08;69.31;94964.66;5051357;28;20639;-64
2022/08/30 10:35:37;;;;;;;15.95;11.43;;;;;;;28.28;67.86;94987.03;5051066;28;20263;-65
2022/08/30 10:38:19;;;;;;;19.05;15.23;;;;;;;28.57;68.58;94947.63;5049890;28;20197;-64
2022/08/30 10:41:12;;;;;;;23.73;12.48;;;;;;;28.64;68.18;94958.75;5050031;28;20224;-65
2022/08/30 10:44:05;;;;;;;19.13;11.27;;;;;;;28.81;67.67;94966.63;5051629;28;20216;-66
2022/08/30 10:46:50;;;;;;;16.50;10.70;;;;;;;29.02;66.92;94979.06;5050045;28;20215;-65
2022/08/30 10:49:20;;;;;;;16.52;11.35;;;;;;;29.18;67.93;94948.72;5052018;28;20636;-63
2022/08/30 10:52:12;;;;;;;17.70;11.23;;;;;;;29.13;67.14;94970.34;5051513;28;20239;-63
2022/08/30 10:54:47;;;;;;;16.85;11.27;;;;;;;28.59;66.77;94952.59;5049702;28;20666;-63
2022/08/30 10:57:12;;;;;;;20.30;10.50;;;;;;;28.56;66.38;94953.88;5051211;28;20177;-62
2022/08/30 10:59:44;;;;;;;18.38;11.57;;;;;;;28.42;67.27;94954.34;5051046;28;20235;-62
2022/08/30 11:02:33;;;;;;;16.10;11.23;;;;;;;28.20;68.20;94920.97;5051385;28;20235;-62
2022/08/30 11:05:21;;;;;;;18.00;11.45;;;;;;;28.19;66.92;94949.97;5049727;28;20221;-62
2022/08/30 11:07:49;;;;;;;21.55;11.93;;;;;;;27.81;66.32;94940.00;5050975;28;20189;-62
2022/08/30 11:10:17;;;;;;;13.63;11.07;;;;;;;27.57;67.60;94924.56;5050939;28;20301;-62
2022/08/30 11:13:04;;;;;;;14.05;12.00;;;;;;;27.29;68.30;94906.94;5049678;28;20190;-62
2022/08/30 11:16:03;;;;;;;11.52;10.32;;;;;;;27.10;71.17;94847.97;5050911;28;20215;-62
2022/08/30 11:18:32;;;;;;;19.98;10.48;;;;;;;27.06;69.73;94871.16;5046207;28;20226;-62
2022/08/30 11:21:35;;;;;;;20.73;10.88;;;;;;;27.22;70.00;94859.22;5050787;28;20267;-62
2022/08/30 11:24:11;;;;;;;9.80;8.82;;;;;;;27.18;69.12;94864.13;5049638;28;20224;-63
2022/08/30 11:26:47;;;;;;;13.73;10.25;;;;;;;27.32;64.52;94959.50;5049339;28;20276;-63
2022/08/30 11:29:31;;;;;;;10.98;9.15;;;;;;;27.64;61.17;95030.56;5051117;28;20220;-63
2022/08/30 11:32:17;;;;;;;11.02;9.73;;;;;;;27.75;58.01;95092.50;5049288;28;20173;-62
2022/08/30 11:34:45;;;;;;;13.55;8.88;;;;;;;27.97;60.77;95020.38;5050398;28;20209;-62